createdAt,value
2017-10-22T00:00:59.352Z,7.20
2017-10-22T00:03:30.919Z,6.60
2017-10-22T00:06:02.137Z,6.17
2017-10-22T00:08:33.051Z,6.53
2017-10-22T00:11:03.554Z,6.43
2017-10-22T00:13:34.049Z,6.53
2017-10-22T00:16:05.249Z,7.53
2017-10-22T00:18:35.739Z,7.40
2017-10-22T00:21:06.467Z,7.03
2017-10-22T00:23:37.701Z,7.27
2017-10-22T00:26:08.964Z,7.77
2017-10-22T00:28:39.413Z,6.40
2017-10-22T00:31:09.933Z,7.57
2017-10-22T00:33:41.458Z,7.13
2017-10-22T00:36:12.605Z,7.73
2017-10-22T00:38:44.228Z,6.70
2017-10-22T00:41:14.792Z,6.50
2017-10-22T00:43:45.973Z,8.30
2017-10-22T00:46:16.441Z,6.90
2017-10-22T00:48:46.857Z,5.20
2017-10-22T00:51:18.730Z,6.50
2017-10-22T00:53:50.011Z,7.27
2017-10-22T00:56:20.531Z,5.70
2017-10-22T00:58:51.766Z,7.93
2017-10-22T01:01:22.995Z,7.00
2017-10-22T01:03:53.815Z,5.00
2017-10-22T01:06:24.244Z,4.97
2017-10-22T01:08:55.133Z,5.70
2017-10-22T01:11:25.558Z,4.27
2017-10-22T01:16:31.917Z,5.73
2017-10-22T01:19:03.151Z,4.90
2017-10-22T01:21:33.954Z,5.00
2017-10-22T01:24:04.403Z,5.23
2017-10-22T01:26:34.882Z,5.07
2017-10-22T01:29:05.361Z,4.93
2017-10-22T01:31:35.807Z,4.50
2017-10-22T01:34:07.536Z,4.40
2017-10-22T01:36:37.924Z,4.70
2017-10-22T01:39:08.721Z,3.60
2017-10-22T01:41:39.989Z,4.20
2017-10-22T01:44:10.579Z,4.10
2017-10-22T01:46:41.024Z,4.33
2017-10-22T01:49:12.302Z,4.20
2017-10-22T01:51:42.935Z,4.60
2017-10-22T01:54:13.338Z,5.17
2017-10-22T01:56:44.645Z,4.70
2017-10-22T01:59:15.090Z,4.40
2017-10-22T02:01:45.537Z,4.27
2017-10-22T02:04:17.178Z,4.60
2017-10-22T02:06:47.648Z,4.97
2017-10-22T02:09:19.131Z,3.80
2017-10-22T02:11:49.602Z,4.73
2017-10-22T02:14:20.745Z,5.13
2017-10-22T02:16:52.013Z,5.30
2017-10-22T02:19:22.660Z,3.47
2017-10-22T02:21:53.637Z,5.03
2017-10-22T02:24:24.042Z,4.50
2017-10-22T02:26:54.521Z,4.97
2017-10-22T02:29:25.750Z,4.30
2017-10-22T02:31:57.260Z,4.07
2017-10-22T02:34:28.124Z,4.53
2017-10-22T02:36:58.556Z,4.43
2017-10-22T02:39:29.480Z,4.20
2017-10-22T02:41:59.903Z,4.30
2017-10-22T02:44:30.288Z,4.70
2017-10-22T02:47:01.549Z,4.40
2017-10-22T02:49:32.019Z,5.00
2017-10-22T02:52:02.864Z,4.80
2017-10-22T02:54:34.041Z,4.63
2017-10-22T02:57:04.461Z,3.70
2017-10-22T02:59:34.967Z,4.80
2017-10-22T03:02:06.187Z,4.70
2017-10-22T03:04:36.637Z,4.80
2017-10-22T03:07:07.826Z,4.73
2017-10-22T03:09:39.154Z,4.50
2017-10-22T03:12:09.579Z,3.60
2017-10-22T03:14:40.018Z,5.20
2017-10-22T03:17:10.508Z,4.07
2017-10-22T03:19:41.752Z,4.60
2017-10-22T03:22:13.288Z,4.43
2017-10-22T03:24:43.771Z,3.80
2017-10-22T03:27:14.520Z,4.57
2017-10-22T03:29:45.000Z,4.03
2017-10-22T03:32:16.210Z,3.87
2017-10-22T03:34:46.641Z,3.87
2017-10-22T03:37:17.185Z,4.10
2017-10-22T03:39:47.860Z,4.20
2017-10-22T03:42:18.345Z,3.97
2017-10-22T03:44:48.847Z,4.37
2017-10-22T03:47:19.428Z,4.20
2017-10-22T03:49:50.048Z,5.07
2017-10-22T03:52:21.799Z,4.07
2017-10-22T03:54:52.280Z,4.70
2017-10-22T03:57:22.811Z,4.40
2017-10-22T03:59:53.237Z,4.77
2017-10-22T04:02:23.752Z,4.80
2017-10-22T04:04:54.229Z,4.60
2017-10-22T04:07:24.748Z,4.80
2017-10-22T04:09:55.496Z,4.53
2017-10-22T04:12:25.978Z,4.07
2017-10-22T04:14:56.447Z,4.47
2017-10-22T04:17:26.896Z,4.63
2017-10-22T04:19:58.026Z,4.73
2017-10-22T04:22:28.750Z,5.00
2017-10-22T04:24:59.196Z,4.37
2017-10-22T04:27:30.806Z,3.73
2017-10-22T04:30:01.318Z,4.10
2017-10-22T04:32:31.829Z,4.93
2017-10-22T04:35:02.255Z,4.50
2017-10-22T04:37:32.744Z,4.50
2017-10-22T04:40:04.393Z,4.93
2017-10-22T04:42:34.844Z,3.90
2017-10-22T04:45:06.023Z,4.90
2017-10-22T04:47:37.688Z,4.20
2017-10-22T04:50:08.320Z,4.20
2017-10-22T04:52:38.839Z,3.97
2017-10-22T04:55:09.319Z,3.57
2017-10-22T04:57:40.229Z,4.57
2017-10-22T05:00:16.132Z,4.53
2017-10-22T05:02:47.468Z,3.80
2017-10-22T05:05:18.248Z,4.50
2017-10-22T05:07:48.693Z,4.40
2017-10-22T05:10:19.616Z,4.83
2017-10-22T05:12:50.151Z,5.20
2017-10-22T05:15:20.693Z,4.87
2017-10-22T05:17:51.146Z,4.23
2017-10-22T05:20:21.585Z,4.77
2017-10-22T05:22:52.876Z,4.17
2017-10-22T05:25:24.545Z,3.77
2017-10-22T05:27:55.405Z,4.80
2017-10-22T05:30:25.977Z,5.07
2017-10-22T05:32:56.505Z,4.03
2017-10-22T05:35:27.705Z,3.80
2017-10-22T05:37:58.156Z,5.80
2017-10-22T05:40:30.614Z,5.23
2017-10-22T05:43:01.045Z,4.33
2017-10-22T05:45:36.465Z,4.17
2017-10-22T05:48:07.071Z,4.67
2017-10-22T05:50:37.561Z,4.40
2017-10-22T05:53:09.132Z,5.50
2017-10-22T05:55:40.548Z,5.20
2017-10-22T05:58:11.874Z,4.63
2017-10-22T06:00:42.298Z,4.40
2017-10-22T06:05:49.034Z,5.17
2017-10-22T06:08:20.216Z,5.37
2017-10-22T06:10:50.907Z,4.47
2017-10-22T06:13:23.150Z,4.70
2017-10-22T06:15:53.816Z,5.30
2017-10-22T06:18:25.144Z,4.30
2017-10-22T06:20:56.413Z,4.80
2017-10-22T06:23:27.901Z,4.83
2017-10-22T06:25:58.254Z,4.20
2017-10-22T06:28:29.093Z,4.53
2017-10-22T06:30:59.577Z,5.63
2017-10-22T06:33:30.047Z,4.67
2017-10-22T06:36:00.539Z,4.33
2017-10-22T06:38:31.008Z,4.80
2017-10-22T06:41:01.937Z,5.10
2017-10-22T06:43:32.445Z,4.90
2017-10-22T06:46:02.866Z,4.77
2017-10-22T06:48:33.446Z,4.60
2017-10-22T06:51:04.735Z,4.40
2017-10-22T06:53:35.160Z,6.00
2017-10-22T06:56:05.704Z,4.50
2017-10-22T06:58:36.668Z,5.20
2017-10-22T07:01:07.222Z,5.00
2017-10-22T07:03:38.487Z,4.60
2017-10-22T07:06:09.053Z,4.67
2017-10-22T07:08:39.585Z,4.70
2017-10-22T07:11:10.594Z,4.70
2017-10-22T07:13:41.028Z,4.30
2017-10-22T07:16:11.455Z,5.03
2017-10-22T07:18:41.856Z,5.10
2017-10-22T07:21:12.252Z,4.57
2017-10-22T07:23:42.631Z,4.87
2017-10-22T07:26:13.104Z,4.80
2017-10-22T07:28:43.943Z,4.80
2017-10-22T07:31:14.369Z,4.67
2017-10-22T07:33:44.953Z,4.40
2017-10-22T07:36:15.461Z,5.13
2017-10-22T07:38:45.931Z,4.27
2017-10-22T07:41:16.698Z,4.10
2017-10-22T07:43:48.036Z,3.60
2017-10-22T07:46:18.708Z,4.50
2017-10-22T07:48:49.213Z,4.70
2017-10-22T07:51:20.447Z,3.77
2017-10-22T07:53:50.921Z,5.37
2017-10-22T07:56:21.292Z,4.67
2017-10-22T07:58:53.557Z,3.97
2017-10-22T08:01:25.712Z,4.90
2017-10-22T08:03:56.145Z,5.07
2017-10-22T08:06:26.535Z,4.60
2017-10-22T08:08:56.961Z,4.60
2017-10-22T08:11:27.657Z,4.73
2017-10-22T08:13:58.882Z,3.83
2017-10-22T08:16:29.768Z,4.00
2017-10-22T08:19:00.289Z,4.60
2017-10-22T08:21:30.706Z,4.13
2017-10-22T08:24:01.993Z,4.57
2017-10-22T08:26:32.399Z,6.40
2017-10-22T08:29:03.572Z,4.80
2017-10-22T08:31:34.076Z,4.70
2017-10-22T08:34:04.597Z,4.10
2017-10-22T08:36:35.098Z,4.40
2017-10-22T08:39:06.612Z,5.40
2017-10-22T08:41:37.382Z,3.67
2017-10-22T08:44:08.615Z,6.03
2017-10-22T08:46:39.552Z,4.60
2017-10-22T08:49:09.993Z,4.03
2017-10-22T08:51:41.246Z,4.20
2017-10-22T08:54:12.486Z,3.83
2017-10-22T08:56:43.721Z,5.00
2017-10-22T08:59:14.648Z,4.87
2017-10-22T09:01:45.087Z,5.10
2017-10-22T09:04:15.529Z,4.23
2017-10-22T09:06:46.764Z,4.37
2017-10-22T09:09:17.895Z,4.00
2017-10-22T09:11:48.664Z,4.67
2017-10-22T09:14:19.777Z,4.73
2017-10-22T09:16:50.515Z,4.13
2017-10-22T09:19:21.041Z,4.00
2017-10-22T09:21:51.488Z,4.10
2017-10-22T09:24:22.784Z,4.40
2017-10-22T09:26:53.293Z,4.27
2017-10-22T09:29:24.020Z,4.53
2017-10-22T09:31:54.540Z,4.73
2017-10-22T09:34:25.017Z,4.50
2017-10-22T09:36:56.162Z,4.83
2017-10-22T09:39:27.308Z,4.33
2017-10-22T09:41:57.987Z,4.73
2017-10-22T09:44:28.435Z,5.80
2017-10-22T09:46:59.299Z,5.37
2017-10-22T09:49:29.756Z,4.80
2017-10-22T09:52:01.008Z,5.20
2017-10-22T09:54:32.255Z,5.23
2017-10-22T09:57:03.508Z,6.43
2017-10-22T09:59:34.972Z,4.90
2017-10-22T10:02:05.469Z,5.80
2017-10-22T10:04:37.575Z,4.77
2017-10-22T10:07:08.147Z,6.10
2017-10-22T10:09:38.548Z,5.10
2017-10-22T10:12:08.915Z,4.83
2017-10-22T10:14:40.178Z,4.77
2017-10-22T10:17:11.742Z,5.20
2017-10-22T10:19:42.211Z,5.07
2017-10-22T10:22:12.657Z,5.47
2017-10-22T10:24:43.134Z,4.60
2017-10-22T10:27:13.675Z,4.80
2017-10-22T10:29:45.162Z,4.40
2017-10-22T10:32:15.753Z,4.47
2017-10-22T10:34:46.484Z,6.00
2017-10-22T10:37:17.065Z,5.23
2017-10-22T10:39:47.542Z,5.00
2017-10-22T10:42:18.060Z,5.03
2017-10-22T10:44:48.502Z,5.90
2017-10-22T10:47:19.243Z,5.70
2017-10-22T10:49:49.744Z,5.10
2017-10-22T10:52:20.246Z,5.80
2017-10-22T10:54:52.703Z,4.70
2017-10-22T10:57:23.214Z,4.73
2017-10-22T10:59:53.842Z,4.40
2017-10-22T11:02:24.336Z,5.03
2017-10-22T11:04:55.931Z,5.00
2017-10-22T11:07:26.412Z,5.70
2017-10-22T11:09:56.752Z,6.50
2017-10-22T11:12:28.305Z,6.60
2017-10-22T11:14:58.770Z,5.90
2017-10-22T11:17:30.231Z,6.00
2017-10-22T11:20:00.811Z,6.50
2017-10-22T11:22:31.209Z,5.80
2017-10-22T11:25:02.455Z,5.33
2017-10-22T11:27:33.793Z,5.70
2017-10-22T11:30:05.540Z,4.50
2017-10-22T11:32:36.027Z,5.00
2017-10-22T11:35:07.022Z,6.63
2017-10-22T11:37:38.255Z,7.43
2017-10-22T11:40:08.774Z,7.90
2017-10-22T11:42:39.225Z,6.33
2017-10-22T11:45:10.397Z,6.93
2017-10-22T11:47:41.716Z,6.27
2017-10-22T11:50:13.166Z,7.90
2017-10-22T11:52:44.428Z,8.60
2017-10-22T11:55:15.749Z,7.40
2017-10-22T11:57:46.183Z,6.53
2017-10-22T12:00:17.616Z,5.20
2017-10-22T12:02:48.078Z,8.20
2017-10-22T12:05:19.672Z,6.80
2017-10-22T12:07:50.102Z,5.00
2017-10-22T12:10:20.466Z,5.30
2017-10-22T12:12:51.711Z,6.37
2017-10-22T12:15:23.048Z,4.20
2017-10-22T12:17:53.739Z,5.07
2017-10-22T12:20:24.170Z,4.20
2017-10-22T12:22:54.873Z,4.90
2017-10-22T12:25:26.003Z,4.83
2017-10-22T12:27:57.240Z,6.50
2017-10-22T12:30:28.720Z,5.30
2017-10-22T12:32:59.167Z,5.73
2017-10-22T12:35:29.874Z,5.90
2017-10-22T12:38:00.390Z,5.87
2017-10-22T12:40:31.646Z,5.60
2017-10-22T12:43:02.108Z,6.13
2017-10-22T12:45:32.561Z,5.60
2017-10-22T12:48:04.174Z,6.13
2017-10-22T12:50:34.616Z,6.20
2017-10-22T12:53:05.882Z,5.43
2017-10-22T12:55:36.380Z,4.90
2017-10-22T12:58:07.893Z,4.27
2017-10-22T13:00:39.350Z,5.73
2017-10-22T13:03:10.620Z,6.20
2017-10-22T13:05:41.661Z,6.13
2017-10-22T13:08:12.183Z,6.23
2017-10-22T13:10:42.663Z,5.73
2017-10-22T13:13:13.074Z,6.63
2017-10-22T13:15:43.551Z,5.90
2017-10-22T13:18:14.946Z,5.50
2017-10-22T13:20:45.360Z,6.37
2017-10-22T13:23:15.831Z,4.87
2017-10-22T13:25:46.336Z,5.13
2017-10-22T13:28:16.771Z,5.70
2017-10-22T13:30:47.236Z,6.20
2017-10-22T13:33:18.485Z,6.40
2017-10-22T13:35:49.820Z,5.90
2017-10-22T13:38:21.025Z,6.00
2017-10-22T13:40:51.445Z,5.60
2017-10-22T13:43:21.888Z,5.87
2017-10-22T13:45:52.349Z,4.77
2017-10-22T13:48:23.976Z,5.37
2017-10-22T13:50:54.464Z,5.67
2017-10-22T13:53:25.273Z,6.17
2017-10-22T13:55:56.469Z,5.70
2017-10-22T13:58:27.612Z,5.27
2017-10-22T14:00:58.043Z,6.40
2017-10-22T14:03:28.531Z,6.27
2017-10-22T14:05:59.387Z,6.30
2017-10-22T14:08:29.885Z,5.33
2017-10-22T14:11:01.105Z,6.10
2017-10-22T14:13:31.557Z,5.67
2017-10-22T14:16:02.014Z,6.17
2017-10-22T14:18:32.857Z,5.40
2017-10-22T14:21:03.244Z,5.97
2017-10-22T14:23:35.666Z,5.47
2017-10-22T14:26:06.090Z,7.20
2017-10-22T14:28:36.560Z,6.63
2017-10-22T14:31:07.740Z,6.67
2017-10-22T14:33:38.149Z,6.43
2017-10-22T14:36:08.852Z,5.60
2017-10-22T14:38:39.354Z,6.33
2017-10-22T14:41:09.752Z,6.30
2017-10-22T14:43:40.245Z,6.30
2017-10-22T14:46:11.577Z,6.50
2017-10-22T14:48:43.148Z,5.70
2017-10-22T14:51:14.448Z,6.70
2017-10-22T14:53:45.161Z,5.60
2017-10-22T14:56:15.553Z,6.30
2017-10-22T14:58:46.759Z,5.47
2017-10-22T15:01:17.229Z,6.10
2017-10-22T15:03:48.437Z,5.90
2017-10-22T15:06:19.357Z,6.97
2017-10-22T15:08:49.848Z,5.70
2017-10-22T15:11:20.574Z,6.07
2017-10-22T15:13:52.233Z,5.27
2017-10-22T15:16:23.727Z,5.87
2017-10-22T15:18:54.181Z,5.83
2017-10-22T15:21:24.706Z,6.80
2017-10-22T15:23:55.531Z,6.50
2017-10-22T15:26:25.980Z,6.10
2017-10-22T15:28:56.425Z,6.30
2017-10-22T15:31:27.599Z,4.77
2017-10-22T15:33:58.040Z,5.60
2017-10-22T15:36:28.903Z,5.47
2017-10-22T15:38:59.331Z,6.00
2017-10-22T15:41:29.706Z,5.60
2017-10-22T15:44:00.193Z,6.37
2017-10-22T15:46:30.639Z,5.40
2017-10-22T15:49:01.940Z,5.80
2017-10-22T15:51:32.371Z,5.77
2017-10-22T15:54:02.827Z,5.50
2017-10-22T15:56:33.252Z,5.60
2017-10-22T15:59:03.739Z,6.40
2017-10-22T16:01:34.133Z,6.10
2017-10-22T16:04:05.298Z,5.87
2017-10-22T16:06:36.069Z,6.20
2017-10-22T16:09:06.832Z,6.10
2017-10-22T16:11:38.397Z,5.77
2017-10-22T16:14:09.631Z,6.50
2017-10-22T16:16:40.805Z,5.40
2017-10-22T16:19:11.237Z,6.80
2017-10-22T16:21:41.611Z,5.50
2017-10-22T16:24:12.411Z,6.13
2017-10-22T16:26:42.908Z,5.90
2017-10-22T16:29:13.419Z,6.87
2017-10-22T16:31:44.651Z,6.03
2017-10-22T16:34:15.048Z,6.20
2017-10-22T16:36:45.915Z,6.17
2017-10-22T16:39:16.340Z,5.73
2017-10-22T16:41:47.201Z,5.30
2017-10-22T16:44:18.435Z,5.67
2017-10-22T16:46:49.695Z,6.50
2017-10-22T16:51:56.058Z,5.80
2017-10-22T16:54:28.200Z,6.23
2017-10-22T16:56:58.628Z,5.90
2017-10-22T16:59:29.072Z,6.10
2017-10-22T17:01:59.535Z,6.03
2017-10-22T17:04:29.999Z,5.57
2017-10-22T17:07:00.955Z,6.30
2017-10-22T17:09:31.374Z,5.67
2017-10-22T17:12:02.198Z,6.10
2017-10-22T17:14:32.683Z,5.60
2017-10-22T17:17:03.893Z,6.10
2017-10-22T17:19:34.351Z,6.20
2017-10-22T17:22:05.442Z,6.43
2017-10-22T17:24:36.288Z,6.13
2017-10-22T17:27:06.764Z,6.00
2017-10-22T17:29:37.174Z,5.40
2017-10-22T17:32:08.389Z,6.00
2017-10-22T17:34:38.854Z,5.87
2017-10-22T17:37:10.453Z,5.50
2017-10-22T17:39:40.908Z,6.70
2017-10-22T17:42:11.536Z,6.70
2017-10-22T17:44:42.038Z,5.33
2017-10-22T17:47:12.410Z,5.90
2017-10-22T17:49:43.665Z,6.20
2017-10-22T17:52:14.784Z,6.27
2017-10-22T17:54:45.696Z,6.03
2017-10-22T17:57:16.147Z,6.10
2017-10-22T17:59:46.656Z,6.43
2017-10-22T18:02:17.156Z,6.13
2017-10-22T18:04:47.589Z,6.63
2017-10-22T18:07:18.410Z,6.03
2017-10-22T18:09:48.925Z,7.13
2017-10-22T18:12:19.822Z,6.53
2017-10-22T18:14:50.278Z,6.47
2017-10-22T18:17:21.532Z,6.03
2017-10-22T18:19:52.728Z,6.20
2017-10-22T18:22:23.176Z,6.47
2017-10-22T18:24:54.009Z,5.87
2017-10-22T18:27:24.483Z,6.30
2017-10-22T18:29:54.948Z,5.53
2017-10-22T18:32:25.308Z,6.77
2017-10-22T18:34:56.554Z,6.63
2017-10-22T18:37:28.009Z,6.10
2017-10-22T18:39:59.435Z,5.90
2017-10-22T18:42:30.065Z,6.20
2017-10-22T18:45:00.820Z,5.80
2017-10-22T18:47:32.035Z,6.87
2017-10-22T18:50:02.453Z,5.67
2017-10-22T18:52:32.925Z,6.60
2017-10-22T18:55:04.068Z,6.30
2017-10-22T18:57:35.221Z,5.73
2017-10-22T19:00:06.796Z,5.93
2017-10-22T19:02:37.258Z,6.87
2017-10-22T19:05:07.688Z,5.80
2017-10-22T19:07:38.069Z,6.20
2017-10-22T19:10:08.494Z,6.20
2017-10-22T19:12:39.489Z,6.30
2017-10-22T19:15:09.951Z,6.00
2017-10-22T19:17:40.443Z,5.90
2017-10-22T19:20:10.964Z,5.63
2017-10-22T19:22:41.406Z,7.20
2017-10-22T19:25:12.070Z,7.00
2017-10-22T19:27:42.519Z,6.87
2017-10-22T19:30:13.344Z,5.70
2017-10-22T19:32:43.852Z,6.40
2017-10-22T19:35:15.424Z,6.43
2017-10-22T19:37:45.898Z,6.40
2017-10-22T19:40:16.384Z,6.30
2017-10-22T19:42:46.979Z,6.70
2017-10-22T19:45:18.238Z,7.17
2017-10-22T19:47:49.456Z,5.97
2017-10-22T19:50:19.903Z,6.47
2017-10-22T19:52:51.100Z,6.40
2017-10-22T19:55:21.980Z,6.37
2017-10-22T19:57:53.346Z,6.73
2017-10-22T20:00:24.292Z,7.07
2017-10-22T20:02:54.704Z,6.50
2017-10-22T20:05:25.882Z,6.13
2017-10-22T20:07:56.351Z,6.17
2017-10-22T20:10:26.752Z,6.03
2017-10-22T20:12:58.628Z,5.90
2017-10-22T20:15:29.893Z,6.37
2017-10-22T20:18:01.155Z,6.27
2017-10-22T20:20:32.382Z,7.40
2017-10-22T20:23:02.873Z,7.23
2017-10-22T20:25:33.379Z,6.17
2017-10-22T20:28:03.757Z,7.00
2017-10-22T20:30:34.574Z,6.30
2017-10-22T20:33:04.919Z,6.40
2017-10-22T20:35:35.392Z,6.30
2017-10-22T20:38:05.807Z,6.17
2017-10-22T20:40:36.224Z,6.53
2017-10-22T20:43:07.721Z,6.43
2017-10-22T20:45:38.116Z,6.33
2017-10-22T20:48:08.574Z,6.17
2017-10-22T20:50:39.044Z,6.30
2017-10-22T20:53:10.278Z,6.90
2017-10-22T20:55:40.741Z,6.80
2017-10-22T20:58:11.273Z,6.33
2017-10-22T21:00:42.400Z,7.40
2017-10-22T21:03:13.651Z,7.00
2017-10-22T21:05:44.167Z,6.57
2017-10-22T21:08:15.382Z,6.33
2017-10-22T21:10:46.172Z,6.80
2017-10-22T21:13:16.750Z,7.30
2017-10-22T21:15:47.173Z,6.27
2017-10-22T21:18:18.573Z,6.80
2017-10-22T21:20:49.067Z,6.03
2017-10-22T21:23:19.462Z,7.20
2017-10-22T21:25:49.931Z,6.30
2017-10-22T21:28:20.421Z,6.70
2017-10-22T21:30:51.045Z,6.80
2017-10-22T21:33:21.497Z,7.03
2017-10-22T21:35:51.972Z,6.70
2017-10-22T21:38:22.519Z,6.30
2017-10-22T21:40:53.121Z,6.87
2017-10-22T21:43:25.171Z,6.00
2017-10-22T21:45:56.621Z,6.40
2017-10-22T21:48:28.316Z,6.30
2017-10-22T21:50:58.948Z,6.60
2017-10-22T21:53:29.469Z,6.17
2017-10-22T21:55:59.964Z,6.13
2017-10-22T21:58:31.155Z,5.77
2017-10-22T22:01:02.046Z,6.03
2017-10-22T22:03:33.226Z,6.23
2017-10-22T22:06:03.738Z,5.90
2017-10-22T22:08:34.190Z,6.47
2017-10-22T22:11:04.663Z,6.50
2017-10-22T22:13:35.625Z,6.60
2017-10-22T22:16:06.808Z,6.13
2017-10-22T22:18:37.463Z,6.00
2017-10-22T22:21:07.905Z,6.17
2017-10-22T22:23:38.355Z,6.00
2017-10-22T22:26:09.551Z,6.07
2017-10-22T22:28:39.930Z,6.00
2017-10-22T22:31:10.815Z,5.93
2017-10-22T22:33:41.240Z,6.20
2017-10-22T22:36:11.866Z,6.80
2017-10-22T22:38:42.318Z,6.20
2017-10-22T22:41:12.757Z,6.13
2017-10-22T22:43:44.319Z,6.47
2017-10-22T22:46:15.595Z,6.90
2017-10-22T22:48:47.160Z,6.90
2017-10-22T22:51:17.710Z,5.97
2017-10-22T22:53:48.085Z,6.63
2017-10-22T22:56:19.290Z,6.40
2017-10-22T22:58:49.740Z,7.67
2017-10-22T23:01:21.060Z,7.60
2017-10-22T23:03:51.468Z,6.37
2017-10-22T23:06:21.984Z,5.70
2017-10-22T23:08:52.981Z,7.00
2017-10-22T23:11:24.151Z,6.47
2017-10-22T23:13:55.037Z,6.90
2017-10-22T23:16:25.414Z,6.30
2017-10-22T23:18:56.341Z,7.60
2017-10-22T23:21:28.469Z,7.50
2017-10-22T23:23:58.942Z,8.13
2017-10-22T23:26:29.636Z,6.93
2017-10-22T23:29:00.083Z,7.53
2017-10-22T23:31:31.638Z,7.10
2017-10-22T23:34:02.833Z,7.20
2017-10-22T23:36:33.393Z,6.57
2017-10-22T23:39:03.924Z,6.13
2017-10-22T23:41:34.375Z,6.77
2017-10-22T23:44:06.151Z,6.70
2017-10-22T23:46:37.805Z,6.87
2017-10-22T23:49:08.829Z,7.60
2017-10-22T23:51:40.080Z,6.40
2017-10-22T23:54:11.222Z,6.37
2017-10-22T23:56:42.470Z,6.70
2017-10-22T23:59:12.942Z,7.47
